createdAt,value
2022-09-24T00:00:57.852Z,25.07
2022-09-24T00:03:51.802Z,25.08
2022-09-24T00:06:42.308Z,25.08
2022-09-24T00:09:30.844Z,25.05
2022-09-24T00:12:19.255Z,25.03
2022-09-24T00:15:09.258Z,25.03
2022-09-24T00:17:58.058Z,25.01
2022-09-24T00:20:47.753Z,25.04
2022-09-24T00:23:36.266Z,25.00
2022-09-24T00:26:42.902Z,25.01
2022-09-24T00:29:32.944Z,25.00
2022-09-24T00:32:22.480Z,25.01
2022-09-24T00:35:11.225Z,25.01
2022-09-24T00:38:01.300Z,24.98
2022-09-24T00:40:50.304Z,24.98
2022-09-24T00:43:39.662Z,24.97
2022-09-24T00:46:29.878Z,24.95
2022-09-24T00:49:20.621Z,24.95
2022-09-24T00:52:09.153Z,24.95
2022-09-24T00:54:58.988Z,24.97
2022-09-24T00:57:50.991Z,24.98
2022-09-24T01:00:44.664Z,25.00
2022-09-24T01:03:34.801Z,25.01
2022-09-24T01:06:23.407Z,24.98
2022-09-24T01:09:12.181Z,24.98
2022-09-24T01:12:06.417Z,24.98
2022-09-24T01:15:04.393Z,24.97
2022-09-24T01:17:59.185Z,24.98
2022-09-24T01:21:21.196Z,24.98
2022-09-24T01:24:41.818Z,24.96
2022-09-24T01:27:44.518Z,24.94
2022-09-24T01:30:38.166Z,24.91
2022-09-24T01:33:30.115Z,24.90
2022-09-24T01:36:19.440Z,24.88
2022-09-24T01:39:09.082Z,24.93
2022-09-24T01:41:57.687Z,24.91
2022-09-24T01:44:46.265Z,24.88
2022-09-24T01:47:39.885Z,24.86
2022-09-24T01:50:29.990Z,24.88
2022-09-24T01:53:19.433Z,24.91
2022-09-24T01:56:11.153Z,24.88
2022-09-24T01:59:03.456Z,24.88
2022-09-24T02:01:55.362Z,24.90
2022-09-24T02:04:47.548Z,24.87
2022-09-24T02:07:39.165Z,24.90
2022-09-24T02:10:30.799Z,24.88
2022-09-24T02:13:20.047Z,24.88
2022-09-24T02:16:10.403Z,24.88
2022-09-24T02:19:02.470Z,24.89
2022-09-24T02:21:52.659Z,24.87
2022-09-24T02:24:46.786Z,24.86
2022-09-24T02:27:35.260Z,24.87
2022-09-24T02:30:23.638Z,24.85
2022-09-24T02:33:35.863Z,24.85
2022-09-24T02:36:25.118Z,24.87
2022-09-24T02:39:15.008Z,24.86
2022-09-24T02:42:05.460Z,24.83
2022-09-24T02:44:57.343Z,24.81
2022-09-24T02:47:45.774Z,24.81
2022-09-24T02:50:34.180Z,24.84
2022-09-24T02:53:22.801Z,24.85
2022-09-24T02:56:12.668Z,24.84
2022-09-24T02:59:01.827Z,24.82
2022-09-24T03:01:52.080Z,24.81
2022-09-24T03:04:42.948Z,24.80
2022-09-24T03:07:31.374Z,24.80
2022-09-24T03:10:19.868Z,24.84
2022-09-24T03:13:10.957Z,24.82
2022-09-24T03:15:59.429Z,24.82
2022-09-24T03:18:48.110Z,24.83
2022-09-24T03:21:36.548Z,24.82
2022-09-24T03:24:25.053Z,24.80
2022-09-24T03:27:14.062Z,24.78
2022-09-24T03:30:21.698Z,24.79
2022-09-24T03:33:10.215Z,24.78
2022-09-24T03:35:59.925Z,24.78
2022-09-24T03:38:50.152Z,24.79
2022-09-24T03:41:38.575Z,24.78
2022-09-24T03:44:27.196Z,24.77
2022-09-24T03:47:17.045Z,24.79
2022-09-24T03:50:06.163Z,24.80
2022-09-24T03:52:54.807Z,24.78
2022-09-24T03:55:46.770Z,24.75
2022-09-24T03:58:38.714Z,24.79
2022-09-24T04:01:27.545Z,24.78
2022-09-24T04:04:17.656Z,24.75
2022-09-24T04:07:06.348Z,24.77
2022-09-24T04:09:54.760Z,24.74
2022-09-24T04:12:45.654Z,24.75
2022-09-24T04:15:34.178Z,24.74
2022-09-24T04:18:22.825Z,24.73
2022-09-24T04:21:12.576Z,24.74
2022-09-24T04:24:01.069Z,24.74
2022-09-24T04:26:50.359Z,24.76
2022-09-24T04:29:38.794Z,24.76
2022-09-24T04:32:28.465Z,24.74
2022-09-24T04:35:17.105Z,24.75
2022-09-24T04:38:06.959Z,24.76
2022-09-24T04:40:55.430Z,24.78
2022-09-24T04:43:46.743Z,24.74
2022-09-24T04:46:35.212Z,24.70
2022-09-24T04:49:24.242Z,24.73
2022-09-24T04:52:14.883Z,24.73
2022-09-24T04:55:16.909Z,24.73
2022-09-24T04:58:06.163Z,24.71
2022-09-24T05:00:54.704Z,24.70
2022-09-24T05:03:43.726Z,24.69
2022-09-24T05:06:32.104Z,24.70
2022-09-24T05:09:20.576Z,24.73
2022-09-24T05:12:10.659Z,24.74
2022-09-24T05:14:59.204Z,24.70
2022-09-24T05:17:48.212Z,24.71
2022-09-24T05:20:36.769Z,24.70
2022-09-24T05:23:25.144Z,24.70
2022-09-24T05:26:31.210Z,24.68
2022-09-24T05:29:21.189Z,24.68
2022-09-24T05:32:11.400Z,24.70
2022-09-24T05:34:59.854Z,24.69
2022-09-24T05:37:49.665Z,24.68
2022-09-24T05:40:50.517Z,24.67
2022-09-24T05:43:39.045Z,24.66
2022-09-24T05:46:29.458Z,24.68
2022-09-24T05:49:18.955Z,24.70
2022-09-24T05:52:08.109Z,24.68
2022-09-24T05:54:57.133Z,24.69
2022-09-24T05:57:45.573Z,24.67
2022-09-24T06:00:34.197Z,24.70
2022-09-24T06:03:24.102Z,24.72
2022-09-24T06:06:12.552Z,24.71
2022-09-24T06:09:01.084Z,24.70
2022-09-24T06:11:51.088Z,24.70
2022-09-24T06:14:41.877Z,24.71
2022-09-24T06:17:31.322Z,24.71
2022-09-24T06:20:21.653Z,24.75
2022-09-24T06:23:10.154Z,24.75
2022-09-24T06:25:58.550Z,24.73
2022-09-24T06:28:49.164Z,24.76
2022-09-24T06:31:37.622Z,24.76
2022-09-24T06:34:26.097Z,24.72
2022-09-24T06:37:15.917Z,24.74
2022-09-24T06:40:04.320Z,24.75
2022-09-24T06:42:53.523Z,24.74
2022-09-24T06:45:44.063Z,24.75
2022-09-24T06:48:32.804Z,24.74
2022-09-24T06:51:22.254Z,24.76
2022-09-24T06:54:12.062Z,24.75
2022-09-24T06:57:00.517Z,24.76
2022-09-24T06:59:50.948Z,24.74
2022-09-24T07:02:39.433Z,24.73
2022-09-24T07:05:27.963Z,24.76
2022-09-24T07:08:16.385Z,24.76
2022-09-24T07:11:08.693Z,24.75
2022-09-24T07:13:59.519Z,24.79
2022-09-24T07:16:49.231Z,24.82
2022-09-24T07:19:38.293Z,24.84
2022-09-24T07:22:27.709Z,24.89
2022-09-24T07:25:16.504Z,24.90
2022-09-24T07:28:07.903Z,24.90
2022-09-24T07:31:00.538Z,24.80
2022-09-24T07:33:49.089Z,24.76
2022-09-24T07:36:37.567Z,24.76
2022-09-24T07:39:26.335Z,24.74
2022-09-24T07:42:14.711Z,24.71
2022-09-24T07:45:04.834Z,24.73
2022-09-24T07:47:59.633Z,24.76
2022-09-24T07:50:48.040Z,24.84
2022-09-24T07:53:36.491Z,24.87
2022-09-24T07:56:25.446Z,24.88
2022-09-24T07:59:13.901Z,24.91
2022-09-24T08:02:03.792Z,24.95
2022-09-24T08:04:52.251Z,24.97
2022-09-24T08:07:40.798Z,24.98
2022-09-24T08:10:30.111Z,24.97
2022-09-24T08:13:18.528Z,24.99
2022-09-24T08:16:08.123Z,24.98
2022-09-24T08:18:57.977Z,25.00
2022-09-24T08:21:48.622Z,25.04
2022-09-24T08:24:37.077Z,25.02
2022-09-24T08:27:26.435Z,25.00
2022-09-24T08:30:15.810Z,25.02
2022-09-24T08:33:06.671Z,25.00
2022-09-24T08:35:56.571Z,25.02
2022-09-24T08:38:45.070Z,24.97
2022-09-24T08:41:53.726Z,25.04
2022-09-24T08:45:01.495Z,25.06
2022-09-24T08:47:52.111Z,25.06
2022-09-24T08:50:46.722Z,25.07
2022-09-24T08:53:44.471Z,25.06
2022-09-24T08:56:36.163Z,25.09
2022-09-24T08:59:30.343Z,25.09
2022-09-24T09:02:32.410Z,25.09
2022-09-24T09:05:27.681Z,25.16
2022-09-24T09:08:47.173Z,25.15
2022-09-24T09:11:33.615Z,25.20
2022-09-24T09:14:28.090Z,25.16
2022-09-24T09:17:29.316Z,25.15
2022-09-24T09:20:20.257Z,25.18
2022-09-24T09:23:16.713Z,25.18
2022-09-24T09:26:06.872Z,25.12
2022-09-24T09:29:00.847Z,25.11
2022-09-24T09:31:59.986Z,25.10
2022-09-24T09:34:54.829Z,25.10
2022-09-24T09:37:49.053Z,25.11
2022-09-24T09:40:41.671Z,25.10
2022-09-24T09:43:30.869Z,25.08
2022-09-24T09:46:24.989Z,25.09
2022-09-24T09:49:15.642Z,25.08
2022-09-24T09:52:06.495Z,25.07
2022-09-24T09:54:54.970Z,25.05
2022-09-24T09:57:43.452Z,25.03
2022-09-24T10:00:36.535Z,25.05
2022-09-24T10:03:31.149Z,25.05
2022-09-24T10:06:25.528Z,25.09
2022-09-24T10:09:17.387Z,25.05
2022-09-24T10:12:17.795Z,25.05
2022-09-24T10:15:17.972Z,25.07
2022-09-24T10:18:06.603Z,25.11
2022-09-24T10:20:58.342Z,25.12
2022-09-24T10:23:48.530Z,25.16
2022-09-24T10:26:43.847Z,25.19
2022-09-24T10:29:52.105Z,25.19
2022-09-24T10:32:40.945Z,25.20
2022-09-24T10:35:31.324Z,25.19
2022-09-24T10:38:23.706Z,25.22
2022-09-24T10:41:26.967Z,25.22
2022-09-24T10:44:16.346Z,25.26
2022-09-24T10:47:21.507Z,25.26
2022-09-24T10:50:26.118Z,25.30
2022-09-24T10:53:16.133Z,25.35
2022-09-24T10:56:13.767Z,25.39
2022-09-24T10:59:14.475Z,25.32
2022-09-24T11:02:21.694Z,25.26
2022-09-24T11:05:13.333Z,25.25
2022-09-24T11:08:11.308Z,25.31
2022-09-24T11:11:19.535Z,25.34
2022-09-24T11:14:21.258Z,25.25
2022-09-24T11:17:25.712Z,25.25
2022-09-24T11:20:29.800Z,25.17
2022-09-24T11:23:37.258Z,25.20
2022-09-24T11:26:31.129Z,25.18
2022-09-24T11:29:36.869Z,25.23
2022-09-24T11:32:30.509Z,25.20
2022-09-24T11:35:30.522Z,25.26
2022-09-24T11:38:25.084Z,25.13
2022-09-24T11:41:22.123Z,25.09
2022-09-24T11:44:43.901Z,25.04
2022-09-24T11:47:49.401Z,25.09
2022-09-24T11:50:47.984Z,25.13
2022-09-24T11:53:40.451Z,25.16
2022-09-24T11:56:32.966Z,25.14
2022-09-24T11:59:34.002Z,25.26
2022-09-24T12:02:25.931Z,25.27
2022-09-24T12:05:17.499Z,25.20
2022-09-24T12:08:11.734Z,25.18
2022-09-24T12:11:04.156Z,25.26
2022-09-24T12:13:55.554Z,25.30
2022-09-24T12:16:47.896Z,25.32
2022-09-24T12:19:40.886Z,25.34
2022-09-24T12:22:31.209Z,25.36
2022-09-24T12:25:19.578Z,25.41
2022-09-24T12:28:11.807Z,25.37
2022-09-24T12:31:34.508Z,25.33
2022-09-24T12:34:29.420Z,25.33
2022-09-24T12:37:20.154Z,25.33
2022-09-24T12:40:20.192Z,25.34
2022-09-24T12:43:19.022Z,25.35
2022-09-24T12:46:09.806Z,25.34
2022-09-24T12:48:58.433Z,25.34
2022-09-24T12:51:48.508Z,25.34
2022-09-24T12:54:38.486Z,25.35
2022-09-24T12:57:30.795Z,25.37
2022-09-24T13:00:37.686Z,25.39
2022-09-24T13:03:34.918Z,25.39
2022-09-24T13:06:32.578Z,25.43
2022-09-24T13:09:37.389Z,25.40
2022-09-24T13:12:33.149Z,25.40
2022-09-24T13:15:28.768Z,25.41
2022-09-24T13:18:24.176Z,25.43
2022-09-24T13:21:21.164Z,25.42
2022-09-24T13:24:12.959Z,25.43
2022-09-24T13:27:22.206Z,25.45
2022-09-24T13:30:19.524Z,25.46
2022-09-24T13:33:21.226Z,25.46
2022-09-24T13:36:13.774Z,25.49
2022-09-24T13:39:06.691Z,25.52
2022-09-24T13:42:01.116Z,25.55
2022-09-24T13:44:54.300Z,25.76
2022-09-24T13:47:45.677Z,25.76
2022-09-24T13:50:36.336Z,25.92
2022-09-24T13:53:34.490Z,26.06
2022-09-24T13:56:23.001Z,25.96
2022-09-24T13:59:13.567Z,25.96
2022-09-24T14:02:03.764Z,26.05
2022-09-24T14:04:55.717Z,25.97
2022-09-24T14:07:44.298Z,26.02
2022-09-24T14:10:33.133Z,26.14
2022-09-24T14:13:24.556Z,26.13
2022-09-24T14:16:17.900Z,26.13
2022-09-24T14:19:08.127Z,26.04
2022-09-24T14:21:59.448Z,25.98
2022-09-24T14:24:55.503Z,25.96
2022-09-24T14:27:45.990Z,25.97
2022-09-24T14:30:35.301Z,25.96
2022-09-24T14:33:25.957Z,25.92
2022-09-24T14:36:16.165Z,25.91
2022-09-24T14:39:06.593Z,25.88
2022-09-24T14:41:56.833Z,25.83
2022-09-24T14:44:47.257Z,25.83
2022-09-24T14:47:37.094Z,25.84
2022-09-24T14:50:30.030Z,25.86
2022-09-24T14:53:33.009Z,25.94
2022-09-24T14:56:22.423Z,25.96
2022-09-24T14:59:15.675Z,25.93
2022-09-24T15:02:22.635Z,25.97
2022-09-24T15:05:11.370Z,25.95
2022-09-24T15:08:18.563Z,25.95
2022-09-24T15:11:08.413Z,25.92
2022-09-24T15:14:01.316Z,25.87
2022-09-24T15:16:50.922Z,25.89
2022-09-24T15:19:43.115Z,25.83
2022-09-24T15:22:32.167Z,25.81
2022-09-24T15:25:20.603Z,25.79
2022-09-24T15:28:15.710Z,25.77
2022-09-24T15:31:05.252Z,25.72
2022-09-24T15:33:53.783Z,25.70
2022-09-24T15:36:42.178Z,25.64
2022-09-24T15:39:31.965Z,25.65
2022-09-24T15:42:21.786Z,25.63
2022-09-24T15:45:17.547Z,25.64
2022-09-24T15:48:07.223Z,25.53
2022-09-24T15:50:56.182Z,25.51
2022-09-24T15:53:44.852Z,25.53
2022-09-24T15:56:35.201Z,25.54
2022-09-24T15:59:24.574Z,25.40
2022-09-24T16:02:18.813Z,25.36
2022-09-24T16:05:11.539Z,25.32
2022-09-24T16:07:59.969Z,25.30
2022-09-24T16:10:48.408Z,25.31
2022-09-24T16:13:37.042Z,25.35
2022-09-24T16:16:25.785Z,25.32
2022-09-24T16:19:17.760Z,25.30
2022-09-24T16:22:06.592Z,25.26
2022-09-24T16:24:55.202Z,25.22
2022-09-24T16:27:43.969Z,25.20
2022-09-24T16:30:37.631Z,25.21
2022-09-24T16:33:27.239Z,25.20
2022-09-24T16:36:16.918Z,25.29
2022-09-24T16:39:05.873Z,25.23
2022-09-24T16:41:54.456Z,25.24
2022-09-24T16:44:42.870Z,25.24
2022-09-24T16:47:31.257Z,25.22
2022-09-24T16:50:23.428Z,25.27
2022-09-24T16:53:13.120Z,25.26
2022-09-24T16:56:08.805Z,25.25
2022-09-24T16:58:58.022Z,25.25
2022-09-24T17:01:46.623Z,25.25
2022-09-24T17:04:35.266Z,25.26
2022-09-24T17:07:24.048Z,25.29
2022-09-24T17:10:16.154Z,25.33
2022-09-24T17:13:08.073Z,25.35
2022-09-24T17:15:56.506Z,25.39
2022-09-24T17:18:46.101Z,25.44
2022-09-24T17:21:34.473Z,25.44
2022-09-24T17:24:22.908Z,25.45
2022-09-24T17:27:12.724Z,25.51
2022-09-24T17:30:01.185Z,25.56
2022-09-24T17:32:49.601Z,25.58
2022-09-24T17:35:37.945Z,25.54
2022-09-24T17:38:26.577Z,25.51
2022-09-24T17:41:15.893Z,25.50
2022-09-24T17:44:05.612Z,25.49
2022-09-24T17:46:54.024Z,25.48
2022-09-24T17:49:42.580Z,25.47
2022-09-24T17:52:30.976Z,25.45
2022-09-24T17:55:19.414Z,25.43
2022-09-24T17:58:09.340Z,25.43
2022-09-24T18:01:05.292Z,25.45
2022-09-24T18:03:54.429Z,25.50
2022-09-24T18:06:44.207Z,25.51
2022-09-24T18:09:32.701Z,25.57
2022-09-24T18:12:21.140Z,25.65
2022-09-24T18:15:09.977Z,25.75
2022-09-24T18:17:59.973Z,25.86
2022-09-24T18:20:48.384Z,25.99
2022-09-24T18:23:36.979Z,26.06
2022-09-24T18:26:26.993Z,26.13
2022-09-24T18:29:16.637Z,26.19
2022-09-24T18:32:05.502Z,26.26
2022-09-24T18:34:55.230Z,26.31
2022-09-24T18:37:44.767Z,26.32
2022-09-24T18:40:33.509Z,26.35
2022-09-24T18:43:22.256Z,26.41
2022-09-24T18:46:12.739Z,26.45
2022-09-24T18:49:02.032Z,26.48
2022-09-24T18:51:52.343Z,26.49
2022-09-24T18:54:40.925Z,26.37
2022-09-24T18:57:29.414Z,26.29
2022-09-24T19:00:32.010Z,26.27
2022-09-24T19:03:20.392Z,26.26
2022-09-24T19:06:10.483Z,26.24
2022-09-24T19:09:00.322Z,26.24
2022-09-24T19:11:49.423Z,26.24
2022-09-24T19:14:37.840Z,26.24
2022-09-24T19:17:26.642Z,26.22
2022-09-24T19:20:15.107Z,26.21
2022-09-24T19:23:03.728Z,26.21
2022-09-24T19:25:54.427Z,26.23
2022-09-24T19:28:43.589Z,26.22
2022-09-24T19:31:35.882Z,26.23
2022-09-24T19:34:24.331Z,26.26
2022-09-24T19:37:12.732Z,26.23
2022-09-24T19:40:01.362Z,26.27
2022-09-24T19:42:51.189Z,26.23
2022-09-24T19:45:39.591Z,26.22
2022-09-24T19:48:29.231Z,26.22
2022-09-24T19:51:20.441Z,26.31
2022-09-24T19:54:09.678Z,26.36
2022-09-24T19:56:58.253Z,26.27
2022-09-24T19:59:48.142Z,26.27
2022-09-24T20:02:37.008Z,26.24
2022-09-24T20:05:25.729Z,26.26
2022-09-24T20:08:14.859Z,26.25
2022-09-24T20:11:05.026Z,26.25
2022-09-24T20:13:54.961Z,26.27
2022-09-24T20:16:44.945Z,26.25
2022-09-24T20:19:36.155Z,26.24
2022-09-24T20:22:27.210Z,26.25
2022-09-24T20:25:15.969Z,26.24
2022-09-24T20:28:03.492Z,26.25
2022-09-24T20:30:52.155Z,26.25
2022-09-24T20:33:42.512Z,26.25
2022-09-24T20:36:32.175Z,26.25
2022-09-24T20:39:20.807Z,26.25
2022-09-24T20:42:09.601Z,26.24
2022-09-24T20:45:03.754Z,26.25
2022-09-24T20:47:54.507Z,26.24
2022-09-24T20:50:44.358Z,26.25
2022-09-24T20:53:33.624Z,26.23
2022-09-24T20:56:24.559Z,26.20
2022-09-24T20:59:13.821Z,26.17
2022-09-24T21:02:02.715Z,26.16
2022-09-24T21:04:52.346Z,26.15
2022-09-24T21:07:42.695Z,26.18
2022-09-24T21:10:31.855Z,26.16
2022-09-24T21:13:20.995Z,26.16
2022-09-24T21:16:10.171Z,26.16
2022-09-24T21:19:00.491Z,26.13
2022-09-24T21:21:48.913Z,26.11
2022-09-24T21:24:39.697Z,26.09
2022-09-24T21:27:28.090Z,26.13
2022-09-24T21:30:16.545Z,26.10
2022-09-24T21:33:05.179Z,26.07
2022-09-24T21:35:54.456Z,26.09
2022-09-24T21:38:43.104Z,26.11
2022-09-24T21:41:34.660Z,26.08
2022-09-24T21:44:23.291Z,26.10
2022-09-24T21:47:11.784Z,26.10
2022-09-24T21:50:00.292Z,26.08
2022-09-24T21:52:51.170Z,26.09
2022-09-24T21:55:40.915Z,26.10
2022-09-24T21:58:31.406Z,26.10
2022-09-24T22:01:22.936Z,26.17
2022-09-24T22:04:12.419Z,26.17
2022-09-24T22:07:00.986Z,26.22
2022-09-24T22:09:49.982Z,26.28
2022-09-24T22:12:38.980Z,26.32
2022-09-24T22:15:28.791Z,26.35
2022-09-24T22:18:17.332Z,26.38
2022-09-24T22:21:09.578Z,26.40
2022-09-24T22:23:58.502Z,26.45
2022-09-24T22:26:47.084Z,26.58
2022-09-24T22:29:35.475Z,26.65
2022-09-24T22:32:26.382Z,26.63
2022-09-24T22:35:32.967Z,26.64
2022-09-24T22:38:22.855Z,26.58
2022-09-24T22:41:12.163Z,26.61
2022-09-24T22:44:00.802Z,26.45
2022-09-24T22:46:49.290Z,26.37
2022-09-24T22:49:39.194Z,26.30
2022-09-24T22:52:28.295Z,26.27
2022-09-24T22:55:16.805Z,26.24
2022-09-24T22:58:05.198Z,26.21
2022-09-24T23:00:53.611Z,26.18
2022-09-24T23:03:42.317Z,26.13
2022-09-24T23:06:35.890Z,26.11
2022-09-24T23:09:24.345Z,26.08
2022-09-24T23:12:12.997Z,26.03
2022-09-24T23:15:01.350Z,25.98
2022-09-24T23:17:49.867Z,26.03
2022-09-24T23:20:39.759Z,25.99
2022-09-24T23:23:29.543Z,25.97
2022-09-24T23:26:20.621Z,25.93
2022-09-24T23:29:09.360Z,25.89
2022-09-24T23:31:57.996Z,25.86
2022-09-24T23:34:46.975Z,25.83
2022-09-24T23:37:36.120Z,25.83
2022-09-24T23:40:29.505Z,25.86
2022-09-24T23:43:18.097Z,25.80
2022-09-24T23:46:07.055Z,25.77
2022-09-24T23:48:55.842Z,25.77
2022-09-24T23:51:45.008Z,25.76
2022-09-24T23:54:37.448Z,25.75
2022-09-24T23:57:27.278Z,25.73
